sensor_id;sensor_type;location;lat;lon;timestamp;temperature;humidity
59075;DHT22;44860;53.020;6.738;2024-03-02T00:00:07;7.30;99.90
59075;DHT22;44860;53.020;6.738;2024-03-02T00:05:08;7.30;99.90
59075;DHT22;44860;53.020;6.738;2024-03-02T00:07:36;7.30;99.90
59075;DHT22;44860;53.020;6.738;2024-03-02T00:10:08;7.30;99.90
59075;DHT22;44860;53.020;6.738;2024-03-02T00:12:37;7.30;99.90
59075;DHT22;44860;53.020;6.738;2024-03-02T00:17:56;7.30;99.90
59075;DHT22;44860;53.020;6.738;2024-03-02T00:20:22;7.20;99.90
59075;DHT22;44860;53.020;6.738;2024-03-02T00:22:51;7.30;99.90
59075;DHT22;44860;53.020;6.738;2024-03-02T00:25:18;7.20;99.90
59075;DHT22;44860;53.020;6.738;2024-03-02T00:27:47;7.30;99.90
59075;DHT22;44860;53.020;6.738;2024-03-02T00:33:01;7.30;99.90
59075;DHT22;44860;53.020;6.738;2024-03-02T00:35:26;7.30;99.90
59075;DHT22;44860;53.020;6.738;2024-03-02T00:37:52;7.20;99.90
59075;DHT22;44860;53.020;6.738;2024-03-02T00:40:18;7.20;99.90
59075;DHT22;44860;53.020;6.738;2024-03-02T00:42:44;7.20;99.90
59075;DHT22;44860;53.020;6.738;2024-03-02T00:45:10;7.20;99.90
59075;DHT22;44860;53.020;6.738;2024-03-02T00:47:39;7.20;99.90
59075;DHT22;44860;53.020;6.738;2024-03-02T00:50:05;7.20;99.90
59075;DHT22;44860;53.020;6.738;2024-03-02T00:52:32;7.20;99.90
59075;DHT22;44860;53.020;6.738;2024-03-02T00:54:58;7.20;99.90
59075;DHT22;44860;53.020;6.738;2024-03-02T00:57:25;7.20;99.90
59075;DHT22;44860;53.020;6.738;2024-03-02T00:59:51;7.20;99.90
59075;DHT22;44860;53.020;6.738;2024-03-02T01:02:17;7.20;99.90
59075;DHT22;44860;53.020;6.738;2024-03-02T01:04:45;7.30;99.90
59075;DHT22;44860;53.020;6.738;2024-03-02T01:07:11;7.30;99.90
59075;DHT22;44860;53.020;6.738;2024-03-02T01:09:36;7.30;99.90
59075;DHT22;44860;53.020;6.738;2024-03-02T01:12:02;7.30;99.90
59075;DHT22;44860;53.020;6.738;2024-03-02T01:14:28;7.30;99.90
59075;DHT22;44860;53.020;6.738;2024-03-02T01:16:54;7.30;99.90
59075;DHT22;44860;53.020;6.738;2024-03-02T01:19:20;7.40;99.90
59075;DHT22;44860;53.020;6.738;2024-03-02T01:21:45;7.40;99.90
59075;DHT22;44860;53.020;6.738;2024-03-02T01:24:11;7.40;99.90
59075;DHT22;44860;53.020;6.738;2024-03-02T01:26:38;7.40;99.90
59075;DHT22;44860;53.020;6.738;2024-03-02T01:29:04;7.40;99.90
59075;DHT22;44860;53.020;6.738;2024-03-02T01:31:29;7.40;99.90
59075;DHT22;44860;53.020;6.738;2024-03-02T01:33:55;7.40;99.90
59075;DHT22;44860;53.020;6.738;2024-03-02T01:36:21;7.40;99.90
59075;DHT22;44860;53.020;6.738;2024-03-02T01:38:47;7.40;99.90
59075;DHT22;44860;53.020;6.738;2024-03-02T01:41:12;7.40;99.90
59075;DHT22;44860;53.020;6.738;2024-03-02T01:43:38;7.40;99.90
59075;DHT22;44860;53.020;6.738;2024-03-02T01:46:04;7.50;99.90
59075;DHT22;44860;53.020;6.738;2024-03-02T01:48:30;7.50;99.90
59075;DHT22;44860;53.020;6.738;2024-03-02T01:50:55;7.50;99.90
59075;DHT22;44860;53.020;6.738;2024-03-02T01:53:21;7.50;99.90
59075;DHT22;44860;53.020;6.738;2024-03-02T01:55:47;7.50;99.90
59075;DHT22;44860;53.020;6.738;2024-03-02T01:58:13;7.50;99.90
59075;DHT22;44860;53.020;6.738;2024-03-02T02:00:38;7.50;99.90
59075;DHT22;44860;53.020;6.738;2024-03-02T02:03:04;7.50;99.90
59075;DHT22;44860;53.020;6.738;2024-03-02T02:05:30;7.50;99.90
59075;DHT22;44860;53.020;6.738;2024-03-02T02:07:57;7.50;99.90
59075;DHT22;44860;53.020;6.738;2024-03-02T02:10:24;7.50;99.90
59075;DHT22;44860;53.020;6.738;2024-03-02T02:12:49;7.50;99.90
59075;DHT22;44860;53.020;6.738;2024-03-02T02:15:25;7.50;99.90
59075;DHT22;44860;53.020;6.738;2024-03-02T02:17:52;7.50;99.90
59075;DHT22;44860;53.020;6.738;2024-03-02T02:20:18;7.50;99.90
59075;DHT22;44860;53.020;6.738;2024-03-02T02:23:01;7.50;99.90
59075;DHT22;44860;53.020;6.738;2024-03-02T02:25:28;7.50;99.90
59075;DHT22;44860;53.020;6.738;2024-03-02T02:27:54;7.50;99.90
59075;DHT22;44860;53.020;6.738;2024-03-02T02:30:22;7.50;99.90
59075;DHT22;44860;53.020;6.738;2024-03-02T02:32:47;7.50;99.90
59075;DHT22;44860;53.020;6.738;2024-03-02T02:35:13;7.50;99.90
59075;DHT22;44860;53.020;6.738;2024-03-02T02:37:39;7.50;99.90
59075;DHT22;44860;53.020;6.738;2024-03-02T02:40:05;7.60;99.90
59075;DHT22;44860;53.020;6.738;2024-03-02T02:42:31;7.60;99.90
59075;DHT22;44860;53.020;6.738;2024-03-02T02:44:57;7.60;99.90
59075;DHT22;44860;53.020;6.738;2024-03-02T02:47:22;7.60;99.90
59075;DHT22;44860;53.020;6.738;2024-03-02T02:49:48;7.60;99.90
59075;DHT22;44860;53.020;6.738;2024-03-02T02:52:14;7.60;99.90
59075;DHT22;44860;53.020;6.738;2024-03-02T02:54:39;7.70;99.90
59075;DHT22;44860;53.020;6.738;2024-03-02T02:57:05;7.70;99.90
59075;DHT22;44860;53.020;6.738;2024-03-02T02:59:30;7.80;99.90
59075;DHT22;44860;53.020;6.738;2024-03-02T03:01:56;7.80;99.90
59075;DHT22;44860;53.020;6.738;2024-03-02T03:04:22;7.80;99.90
59075;DHT22;44860;53.020;6.738;2024-03-02T03:06:47;7.80;99.90
59075;DHT22;44860;53.020;6.738;2024-03-02T03:09:13;7.90;99.90
59075;DHT22;44860;53.020;6.738;2024-03-02T03:11:38;7.90;99.90
59075;DHT22;44860;53.020;6.738;2024-03-02T03:14:04;8.00;99.90
59075;DHT22;44860;53.020;6.738;2024-03-02T03:16:30;8.00;99.90
59075;DHT22;44860;53.020;6.738;2024-03-02T03:18:56;8.10;99.90
59075;DHT22;44860;53.020;6.738;2024-03-02T03:21:22;8.10;99.90
59075;DHT22;44860;53.020;6.738;2024-03-02T03:23:47;8.10;99.90
59075;DHT22;44860;53.020;6.738;2024-03-02T03:26:13;8.20;99.90
59075;DHT22;44860;53.020;6.738;2024-03-02T03:28:38;8.20;99.90
59075;DHT22;44860;53.020;6.738;2024-03-02T03:31:04;8.20;99.90
59075;DHT22;44860;53.020;6.738;2024-03-02T03:33:30;8.20;99.90
59075;DHT22;44860;53.020;6.738;2024-03-02T03:35:55;8.20;99.90
59075;DHT22;44860;53.020;6.738;2024-03-02T03:38:21;8.20;99.90
59075;DHT22;44860;53.020;6.738;2024-03-02T03:40:47;8.20;99.90
59075;DHT22;44860;53.020;6.738;2024-03-02T03:43:13;8.20;99.90
59075;DHT22;44860;53.020;6.738;2024-03-02T03:45:38;8.20;99.90
59075;DHT22;44860;53.020;6.738;2024-03-02T03:48:04;8.30;99.90
59075;DHT22;44860;53.020;6.738;2024-03-02T03:50:30;8.20;99.90
59075;DHT22;44860;53.020;6.738;2024-03-02T03:52:56;8.20;99.90
59075;DHT22;44860;53.020;6.738;2024-03-02T03:55:21;8.20;99.90
59075;DHT22;44860;53.020;6.738;2024-03-02T03:57:47;8.20;99.90
59075;DHT22;44860;53.020;6.738;2024-03-02T04:00:13;8.20;99.90
59075;DHT22;44860;53.020;6.738;2024-03-02T04:02:39;8.20;99.90
59075;DHT22;44860;53.020;6.738;2024-03-02T04:05:05;8.20;99.90
59075;DHT22;44860;53.020;6.738;2024-03-02T04:07:35;8.10;99.90
59075;DHT22;44860;53.020;6.738;2024-03-02T04:10:06;8.10;99.90
59075;DHT22;44860;53.020;6.738;2024-03-02T04:12:34;8.00;99.90
59075;DHT22;44860;53.020;6.738;2024-03-02T04:15:00;8.00;99.90
59075;DHT22;44860;53.020;6.738;2024-03-02T04:17:27;8.00;99.90
59075;DHT22;44860;53.020;6.738;2024-03-02T04:19:53;8.00;99.90
59075;DHT22;44860;53.020;6.738;2024-03-02T04:22:18;8.00;99.90
59075;DHT22;44860;53.020;6.738;2024-03-02T04:24:44;8.00;99.90
59075;DHT22;44860;53.020;6.738;2024-03-02T04:27:09;8.00;99.90
59075;DHT22;44860;53.020;6.738;2024-03-02T04:29:35;8.00;99.90
59075;DHT22;44860;53.020;6.738;2024-03-02T04:32:01;8.00;99.90
59075;DHT22;44860;53.020;6.738;2024-03-02T04:34:26;8.00;99.90
59075;DHT22;44860;53.020;6.738;2024-03-02T04:36:52;8.00;99.90
59075;DHT22;44860;53.020;6.738;2024-03-02T04:39:18;8.00;99.90
59075;DHT22;44860;53.020;6.738;2024-03-02T04:41:44;8.00;99.90
59075;DHT22;44860;53.020;6.738;2024-03-02T04:44:10;8.00;99.90
59075;DHT22;44860;53.020;6.738;2024-03-02T04:46:36;8.00;99.90
59075;DHT22;44860;53.020;6.738;2024-03-02T04:49:02;8.00;99.90
59075;DHT22;44860;53.020;6.738;2024-03-02T04:51:27;8.00;99.90
59075;DHT22;44860;53.020;6.738;2024-03-02T04:53:53;8.00;99.90
59075;DHT22;44860;53.020;6.738;2024-03-02T04:56:19;8.00;99.90
59075;DHT22;44860;53.020;6.738;2024-03-02T04:58:53;8.00;99.90
59075;DHT22;44860;53.020;6.738;2024-03-02T05:01:19;7.90;99.90
59075;DHT22;44860;53.020;6.738;2024-03-02T05:03:44;8.00;99.90
59075;DHT22;44860;53.020;6.738;2024-03-02T05:06:10;8.00;99.90
59075;DHT22;44860;53.020;6.738;2024-03-02T05:08:36;8.00;99.90
59075;DHT22;44860;53.020;6.738;2024-03-02T05:11:02;7.90;99.90
59075;DHT22;44860;53.020;6.738;2024-03-02T05:13:46;7.90;99.90
59075;DHT22;44860;53.020;6.738;2024-03-02T05:16:12;8.00;99.90
59075;DHT22;44860;53.020;6.738;2024-03-02T05:18:37;7.90;99.90
59075;DHT22;44860;53.020;6.738;2024-03-02T05:21:03;7.90;99.90
59075;DHT22;44860;53.020;6.738;2024-03-02T05:23:29;7.90;99.90
59075;DHT22;44860;53.020;6.738;2024-03-02T05:25:55;7.90;99.90
59075;DHT22;44860;53.020;6.738;2024-03-02T05:28:20;7.90;99.90
59075;DHT22;44860;53.020;6.738;2024-03-02T05:30:46;7.90;99.90
59075;DHT22;44860;53.020;6.738;2024-03-02T05:33:12;7.80;99.90
59075;DHT22;44860;53.020;6.738;2024-03-02T05:35:38;7.90;99.90
59075;DHT22;44860;53.020;6.738;2024-03-02T05:38:04;7.80;99.90
59075;DHT22;44860;53.020;6.738;2024-03-02T05:40:29;7.80;99.90
59075;DHT22;44860;53.020;6.738;2024-03-02T05:42:55;7.80;99.90
59075;DHT22;44860;53.020;6.738;2024-03-02T05:45:21;7.80;99.90
59075;DHT22;44860;53.020;6.738;2024-03-02T05:47:46;7.80;99.90
59075;DHT22;44860;53.020;6.738;2024-03-02T05:50:12;7.80;99.90
59075;DHT22;44860;53.020;6.738;2024-03-02T05:52:38;7.80;99.90
59075;DHT22;44860;53.020;6.738;2024-03-02T05:55:07;7.80;99.90
59075;DHT22;44860;53.020;6.738;2024-03-02T05:57:33;7.80;99.90
59075;DHT22;44860;53.020;6.738;2024-03-02T06:00:15;7.80;99.90
59075;DHT22;44860;53.020;6.738;2024-03-02T06:02:42;7.80;99.90
59075;DHT22;44860;53.020;6.738;2024-03-02T06:05:08;7.80;99.90
59075;DHT22;44860;53.020;6.738;2024-03-02T06:07:34;7.80;99.90
59075;DHT22;44860;53.020;6.738;2024-03-02T06:10:00;7.80;99.90
59075;DHT22;44860;53.020;6.738;2024-03-02T06:12:25;7.80;99.90
59075;DHT22;44860;53.020;6.738;2024-03-02T06:14:51;7.80;99.90
59075;DHT22;44860;53.020;6.738;2024-03-02T06:17:16;7.80;99.90
59075;DHT22;44860;53.020;6.738;2024-03-02T06:19:42;7.70;99.90
59075;DHT22;44860;53.020;6.738;2024-03-02T06:22:08;7.70;99.90
59075;DHT22;44860;53.020;6.738;2024-03-02T06:24:36;7.70;99.90
59075;DHT22;44860;53.020;6.738;2024-03-02T06:27:03;7.60;99.90
59075;DHT22;44860;53.020;6.738;2024-03-02T06:29:31;7.60;99.90
59075;DHT22;44860;53.020;6.738;2024-03-02T06:31:57;7.60;99.90
59075;DHT22;44860;53.020;6.738;2024-03-02T06:34:23;7.60;99.90
59075;DHT22;44860;53.020;6.738;2024-03-02T06:36:48;7.60;99.90
59075;DHT22;44860;53.020;6.738;2024-03-02T06:39:14;7.60;99.90
59075;DHT22;44860;53.020;6.738;2024-03-02T06:41:40;7.60;99.90
59075;DHT22;44860;53.020;6.738;2024-03-02T06:44:05;7.50;99.90
59075;DHT22;44860;53.020;6.738;2024-03-02T06:46:32;7.50;99.90
59075;DHT22;44860;53.020;6.738;2024-03-02T06:48:57;7.50;99.90
59075;DHT22;44860;53.020;6.738;2024-03-02T06:51:23;7.40;99.90
59075;DHT22;44860;53.020;6.738;2024-03-02T06:53:49;7.50;99.90
59075;DHT22;44860;53.020;6.738;2024-03-02T06:56:14;7.40;99.90
59075;DHT22;44860;53.020;6.738;2024-03-02T06:58:40;7.40;99.90
59075;DHT22;44860;53.020;6.738;2024-03-02T07:01:06;7.40;99.90
59075;DHT22;44860;53.020;6.738;2024-03-02T07:03:31;7.30;99.90
59075;DHT22;44860;53.020;6.738;2024-03-02T07:05:58;7.30;99.90
59075;DHT22;44860;53.020;6.738;2024-03-02T07:08:23;7.40;99.90
59075;DHT22;44860;53.020;6.738;2024-03-02T07:10:49;7.40;99.90
59075;DHT22;44860;53.020;6.738;2024-03-02T07:13:15;7.40;99.90
59075;DHT22;44860;53.020;6.738;2024-03-02T07:15:40;7.40;99.90
59075;DHT22;44860;53.020;6.738;2024-03-02T07:18:24;7.40;99.90
59075;DHT22;44860;53.020;6.738;2024-03-02T07:20:50;7.40;99.90
59075;DHT22;44860;53.020;6.738;2024-03-02T07:23:16;7.40;99.90
59075;DHT22;44860;53.020;6.738;2024-03-02T07:25:41;7.40;99.90
59075;DHT22;44860;53.020;6.738;2024-03-02T07:28:07;7.40;99.90
59075;DHT22;44860;53.020;6.738;2024-03-02T07:30:33;7.40;99.90
59075;DHT22;44860;53.020;6.738;2024-03-02T07:32:59;7.40;99.90
59075;DHT22;44860;53.020;6.738;2024-03-02T07:35:25;7.40;99.90
59075;DHT22;44860;53.020;6.738;2024-03-02T07:37:54;7.40;99.90
59075;DHT22;44860;53.020;6.738;2024-03-02T07:40:20;7.40;99.90
59075;DHT22;44860;53.020;6.738;2024-03-02T07:42:46;7.40;99.90
59075;DHT22;44860;53.020;6.738;2024-03-02T07:45:12;7.50;99.90
59075;DHT22;44860;53.020;6.738;2024-03-02T07:47:38;7.50;99.90
59075;DHT22;44860;53.020;6.738;2024-03-02T07:50:04;7.50;99.90
59075;DHT22;44860;53.020;6.738;2024-03-02T07:52:32;7.50;99.90
59075;DHT22;44860;53.020;6.738;2024-03-02T07:54:58;7.50;99.90
59075;DHT22;44860;53.020;6.738;2024-03-02T07:57:23;7.60;99.90
59075;DHT22;44860;53.020;6.738;2024-03-02T07:59:49;7.60;99.90
59075;DHT22;44860;53.020;6.738;2024-03-02T08:02:15;7.60;99.90
59075;DHT22;44860;53.020;6.738;2024-03-02T08:04:41;7.60;99.90
59075;DHT22;44860;53.020;6.738;2024-03-02T08:07:07;7.60;99.90
59075;DHT22;44860;53.020;6.738;2024-03-02T08:09:34;7.60;99.90
59075;DHT22;44860;53.020;6.738;2024-03-02T08:11:59;7.60;99.90
59075;DHT22;44860;53.020;6.738;2024-03-02T08:14:25;7.60;99.90
59075;DHT22;44860;53.020;6.738;2024-03-02T08:16:50;7.60;99.90
59075;DHT22;44860;53.020;6.738;2024-03-02T08:19:16;7.60;99.90
59075;DHT22;44860;53.020;6.738;2024-03-02T08:21:43;7.60;99.90
59075;DHT22;44860;53.020;6.738;2024-03-02T08:24:09;7.70;99.90
59075;DHT22;44860;53.020;6.738;2024-03-02T08:26:34;7.70;99.90
59075;DHT22;44860;53.020;6.738;2024-03-02T08:29:00;7.70;99.90
59075;DHT22;44860;53.020;6.738;2024-03-02T08:31:30;7.70;99.90
59075;DHT22;44860;53.020;6.738;2024-03-02T08:33:56;7.70;99.90
59075;DHT22;44860;53.020;6.738;2024-03-02T08:36:23;7.70;99.90
59075;DHT22;44860;53.020;6.738;2024-03-02T08:38:52;7.70;99.90
59075;DHT22;44860;53.020;6.738;2024-03-02T08:41:17;7.80;99.90
59075;DHT22;44860;53.020;6.738;2024-03-02T08:43:44;7.80;99.90
59075;DHT22;44860;53.020;6.738;2024-03-02T08:46:10;7.80;99.90
59075;DHT22;44860;53.020;6.738;2024-03-02T08:48:35;7.90;99.90
59075;DHT22;44860;53.020;6.738;2024-03-02T08:51:01;7.90;99.90
59075;DHT22;44860;53.020;6.738;2024-03-02T08:53:27;7.90;99.90
59075;DHT22;44860;53.020;6.738;2024-03-02T08:55:53;8.00;99.90
59075;DHT22;44860;53.020;6.738;2024-03-02T08:58:20;8.00;99.90
59075;DHT22;44860;53.020;6.738;2024-03-02T09:00:47;8.00;99.90
59075;DHT22;44860;53.020;6.738;2024-03-02T09:03:12;8.10;99.90
59075;DHT22;44860;53.020;6.738;2024-03-02T09:05:38;8.20;99.90
59075;DHT22;44860;53.020;6.738;2024-03-02T09:08:04;8.20;99.90
59075;DHT22;44860;53.020;6.738;2024-03-02T09:10:30;8.30;99.90
59075;DHT22;44860;53.020;6.738;2024-03-02T09:12:58;8.40;99.90
59075;DHT22;44860;53.020;6.738;2024-03-02T09:15:24;8.40;99.90
59075;DHT22;44860;53.020;6.738;2024-03-02T09:17:49;8.50;99.90
59075;DHT22;44860;53.020;6.738;2024-03-02T09:20:15;8.60;99.90
59075;DHT22;44860;53.020;6.738;2024-03-02T09:22:42;8.70;99.90
59075;DHT22;44860;53.020;6.738;2024-03-02T09:25:07;8.80;99.90
59075;DHT22;44860;53.020;6.738;2024-03-02T09:27:37;8.90;99.90
59075;DHT22;44860;53.020;6.738;2024-03-02T09:30:12;8.90;99.90
59075;DHT22;44860;53.020;6.738;2024-03-02T09:32:39;9.00;99.90
59075;DHT22;44860;53.020;6.738;2024-03-02T09:35:05;9.10;99.90
59075;DHT22;44860;53.020;6.738;2024-03-02T09:37:31;9.20;99.90
59075;DHT22;44860;53.020;6.738;2024-03-02T09:39:56;9.30;99.90
59075;DHT22;44860;53.020;6.738;2024-03-02T09:42:23;9.30;99.90
59075;DHT22;44860;53.020;6.738;2024-03-02T09:44:49;9.40;99.90
59075;DHT22;44860;53.020;6.738;2024-03-02T09:47:15;9.40;99.90
59075;DHT22;44860;53.020;6.738;2024-03-02T09:49:41;9.40;99.90
59075;DHT22;44860;53.020;6.738;2024-03-02T09:52:07;9.50;99.90
59075;DHT22;44860;53.020;6.738;2024-03-02T09:54:33;9.50;99.90
59075;DHT22;44860;53.020;6.738;2024-03-02T09:56:58;9.60;99.90
59075;DHT22;44860;53.020;6.738;2024-03-02T09:59:24;9.70;99.90
59075;DHT22;44860;53.020;6.738;2024-03-02T10:02:00;9.80;99.90
59075;DHT22;44860;53.020;6.738;2024-03-02T10:04:27;9.90;99.90
59075;DHT22;44860;53.020;6.738;2024-03-02T10:09:37;9.90;99.90
59075;DHT22;44860;53.020;6.738;2024-03-02T10:12:05;9.90;99.90
59075;DHT22;44860;53.020;6.738;2024-03-02T10:14:31;10.00;99.90
59075;DHT22;44860;53.020;6.738;2024-03-02T10:17:02;10.00;99.90
59075;DHT22;44860;53.020;6.738;2024-03-02T10:19:29;10.00;99.90
59075;DHT22;44860;53.020;6.738;2024-03-02T10:21:59;10.00;99.90
59075;DHT22;44860;53.020;6.738;2024-03-02T10:24:25;10.00;99.90
59075;DHT22;44860;53.020;6.738;2024-03-02T10:26:51;10.00;99.90
59075;DHT22;44860;53.020;6.738;2024-03-02T10:29:17;10.10;99.90
59075;DHT22;44860;53.020;6.738;2024-03-02T10:31:45;10.10;99.90
59075;DHT22;44860;53.020;6.738;2024-03-02T10:34:14;10.10;99.90
59075;DHT22;44860;53.020;6.738;2024-03-02T10:36:42;10.10;99.90
59075;DHT22;44860;53.020;6.738;2024-03-02T10:39:09;10.20;99.90
59075;DHT22;44860;53.020;6.738;2024-03-02T10:41:37;10.20;99.90
59075;DHT22;44860;53.020;6.738;2024-03-02T10:44:08;10.40;99.90
59075;DHT22;44860;53.020;6.738;2024-03-02T10:46:36;10.50;99.90
59075;DHT22;44860;53.020;6.738;2024-03-02T10:49:03;10.60;99.90
59075;DHT22;44860;53.020;6.738;2024-03-02T10:51:33;10.80;99.90
59075;DHT22;44860;53.020;6.738;2024-03-02T10:54:00;10.90;99.90
59075;DHT22;44860;53.020;6.738;2024-03-02T10:56:33;11.00;99.90
59075;DHT22;44860;53.020;6.738;2024-03-02T10:59:06;11.10;99.90
59075;DHT22;44860;53.020;6.738;2024-03-02T11:01:39;11.20;99.90
59075;DHT22;44860;53.020;6.738;2024-03-02T11:04:08;11.20;99.90
59075;DHT22;44860;53.020;6.738;2024-03-02T11:06:36;11.20;99.90
59075;DHT22;44860;53.020;6.738;2024-03-02T11:09:07;11.30;99.90
59075;DHT22;44860;53.020;6.738;2024-03-02T11:11:37;11.40;99.90
59075;DHT22;44860;53.020;6.738;2024-03-02T11:14:07;11.50;99.90
59075;DHT22;44860;53.020;6.738;2024-03-02T11:16:37;11.60;99.90
59075;DHT22;44860;53.020;6.738;2024-03-02T11:19:12;11.60;99.90
59075;DHT22;44860;53.020;6.738;2024-03-02T11:21:38;11.70;99.90
59075;DHT22;44860;53.020;6.738;2024-03-02T11:26:52;11.90;99.90
59075;DHT22;44860;53.020;6.738;2024-03-02T11:32:32;12.00;99.90
59075;DHT22;44860;53.020;6.738;2024-03-02T11:34:57;12.00;99.90
59075;DHT22;44860;53.020;6.738;2024-03-02T11:37:24;12.10;99.90
59075;DHT22;44860;53.020;6.738;2024-03-02T11:39:51;12.10;99.90
59075;DHT22;44860;53.020;6.738;2024-03-02T11:42:17;12.20;99.90
59075;DHT22;44860;53.020;6.738;2024-03-02T11:44:45;12.10;99.90
59075;DHT22;44860;53.020;6.738;2024-03-02T11:47:12;12.20;99.90
59075;DHT22;44860;53.020;6.738;2024-03-02T11:49:46;12.10;99.90
59075;DHT22;44860;53.020;6.738;2024-03-02T11:52:14;12.20;99.90
59075;DHT22;44860;53.020;6.738;2024-03-02T11:54:47;12.10;99.90
59075;DHT22;44860;53.020;6.738;2024-03-02T11:57:15;12.10;99.90
59075;DHT22;44860;53.020;6.738;2024-03-02T11:59:42;12.20;99.90
59075;DHT22;44860;53.020;6.738;2024-03-02T12:02:17;12.30;99.90
59075;DHT22;44860;53.020;6.738;2024-03-02T12:04:44;12.40;99.90
59075;DHT22;44860;53.020;6.738;2024-03-02T12:07:11;12.50;99.90
59075;DHT22;44860;53.020;6.738;2024-03-02T12:09:37;12.60;99.90
59075;DHT22;44860;53.020;6.738;2024-03-02T12:12:09;12.60;99.90
59075;DHT22;44860;53.020;6.738;2024-03-02T12:14:37;12.70;99.90
59075;DHT22;44860;53.020;6.738;2024-03-02T12:17:04;12.80;99.90
59075;DHT22;44860;53.020;6.738;2024-03-02T12:19:31;12.80;99.90
59075;DHT22;44860;53.020;6.738;2024-03-02T12:21:59;12.90;99.90
59075;DHT22;44860;53.020;6.738;2024-03-02T12:24:27;12.90;99.90
59075;DHT22;44860;53.020;6.738;2024-03-02T12:26:53;13.00;99.90
59075;DHT22;44860;53.020;6.738;2024-03-02T12:29:20;13.00;99.90
59075;DHT22;44860;53.020;6.738;2024-03-02T12:31:53;13.10;99.90
59075;DHT22;44860;53.020;6.738;2024-03-02T12:34:19;13.20;99.90
59075;DHT22;44860;53.020;6.738;2024-03-02T12:36:46;13.20;99.90
59075;DHT22;44860;53.020;6.738;2024-03-02T12:39:16;13.20;99.90
59075;DHT22;44860;53.020;6.738;2024-03-02T12:41:42;13.10;99.90
59075;DHT22;44860;53.020;6.738;2024-03-02T12:44:08;13.00;99.90
59075;DHT22;44860;53.020;6.738;2024-03-02T12:46:34;12.90;99.90
59075;DHT22;44860;53.020;6.738;2024-03-02T12:49:12;12.80;99.90
59075;DHT22;44860;53.020;6.738;2024-03-02T12:51:39;12.80;99.90
59075;DHT22;44860;53.020;6.738;2024-03-02T12:54:11;12.80;99.90
59075;DHT22;44860;53.020;6.738;2024-03-02T12:56:37;12.90;99.90
59075;DHT22;44860;53.020;6.738;2024-03-02T12:59:04;13.10;99.90
59075;DHT22;44860;53.020;6.738;2024-03-02T13:01:30;13.30;99.90
59075;DHT22;44860;53.020;6.738;2024-03-02T13:03:57;13.40;99.90
59075;DHT22;44860;53.020;6.738;2024-03-02T13:06:24;13.50;99.90
59075;DHT22;44860;53.020;6.738;2024-03-02T13:08:50;13.70;99.90
59075;DHT22;44860;53.020;6.738;2024-03-02T13:11:16;13.80;99.90
59075;DHT22;44860;53.020;6.738;2024-03-02T13:13:42;13.80;99.90
59075;DHT22;44860;53.020;6.738;2024-03-02T13:16:11;13.70;99.90
59075;DHT22;44860;53.020;6.738;2024-03-02T13:18:41;13.80;99.90
59075;DHT22;44860;53.020;6.738;2024-03-02T13:21:07;13.90;99.90
59075;DHT22;44860;53.020;6.738;2024-03-02T13:23:33;14.00;99.90
59075;DHT22;44860;53.020;6.738;2024-03-02T13:25:59;14.00;99.90
59075;DHT22;44860;53.020;6.738;2024-03-02T13:28:25;14.20;99.90
59075;DHT22;44860;53.020;6.738;2024-03-02T13:30:51;14.20;99.90
59075;DHT22;44860;53.020;6.738;2024-03-02T13:33:18;14.30;99.90
59075;DHT22;44860;53.020;6.738;2024-03-02T13:35:51;14.50;99.90
59075;DHT22;44860;53.020;6.738;2024-03-02T13:38:20;14.60;99.90
59075;DHT22;44860;53.020;6.738;2024-03-02T13:40:48;14.60;99.90
59075;DHT22;44860;53.020;6.738;2024-03-02T13:43:16;14.60;99.90
59075;DHT22;44860;53.020;6.738;2024-03-02T13:45:43;14.50;99.90
59075;DHT22;44860;53.020;6.738;2024-03-02T13:48:08;14.50;99.90
59075;DHT22;44860;53.020;6.738;2024-03-02T13:50:34;14.60;99.90
59075;DHT22;44860;53.020;6.738;2024-03-02T13:53:00;14.70;99.90
59075;DHT22;44860;53.020;6.738;2024-03-02T13:55:26;14.80;99.90
59075;DHT22;44860;53.020;6.738;2024-03-02T13:57:51;14.90;99.90
59075;DHT22;44860;53.020;6.738;2024-03-02T14:00:17;14.80;99.90
59075;DHT22;44860;53.020;6.738;2024-03-02T14:02:45;14.70;99.90
59075;DHT22;44860;53.020;6.738;2024-03-02T14:05:11;14.60;99.90
59075;DHT22;44860;53.020;6.738;2024-03-02T14:07:43;14.40;99.90
59075;DHT22;44860;53.020;6.738;2024-03-02T14:10:11;14.30;99.90
59075;DHT22;44860;53.020;6.738;2024-03-02T14:12:37;14.20;99.90
59075;DHT22;44860;53.020;6.738;2024-03-02T14:15:03;14.10;99.90
59075;DHT22;44860;53.020;6.738;2024-03-02T14:17:29;14.00;99.90
59075;DHT22;44860;53.020;6.738;2024-03-02T14:19:57;14.00;99.90
59075;DHT22;44860;53.020;6.738;2024-03-02T14:22:24;14.00;99.90
59075;DHT22;44860;53.020;6.738;2024-03-02T14:24:50;14.00;99.90
59075;DHT22;44860;53.020;6.738;2024-03-02T14:27:16;13.90;99.90
59075;DHT22;44860;53.020;6.738;2024-03-02T14:29:45;13.90;99.90
59075;DHT22;44860;53.020;6.738;2024-03-02T14:32:10;13.90;99.90
59075;DHT22;44860;53.020;6.738;2024-03-02T14:34:36;13.90;99.90
59075;DHT22;44860;53.020;6.738;2024-03-02T14:37:02;13.90;99.90
59075;DHT22;44860;53.020;6.738;2024-03-02T14:39:28;13.80;99.90
59075;DHT22;44860;53.020;6.738;2024-03-02T14:41:54;13.80;99.90
59075;DHT22;44860;53.020;6.738;2024-03-02T14:44:20;13.80;99.90
59075;DHT22;44860;53.020;6.738;2024-03-02T14:46:49;13.80;99.90
59075;DHT22;44860;53.020;6.738;2024-03-02T14:49:16;13.80;99.90
59075;DHT22;44860;53.020;6.738;2024-03-02T14:51:41;13.70;99.90
59075;DHT22;44860;53.020;6.738;2024-03-02T14:54:07;13.80;99.90
59075;DHT22;44860;53.020;6.738;2024-03-02T14:56:32;13.80;99.90
59075;DHT22;44860;53.020;6.738;2024-03-02T14:58:58;13.90;99.90
59075;DHT22;44860;53.020;6.738;2024-03-02T15:01:24;14.00;99.90
59075;DHT22;44860;53.020;6.738;2024-03-02T15:03:53;14.10;99.90
59075;DHT22;44860;53.020;6.738;2024-03-02T15:06:18;14.20;99.90
59075;DHT22;44860;53.020;6.738;2024-03-02T15:08:44;14.10;99.90
59075;DHT22;44860;53.020;6.738;2024-03-02T15:11:13;14.10;99.90
59075;DHT22;44860;53.020;6.738;2024-03-02T15:13:40;14.00;99.90
59075;DHT22;44860;53.020;6.738;2024-03-02T15:16:05;13.90;99.90
59075;DHT22;44860;53.020;6.738;2024-03-02T15:18:31;13.90;99.90
59075;DHT22;44860;53.020;6.738;2024-03-02T15:20:57;13.80;99.90
59075;DHT22;44860;53.020;6.738;2024-03-02T15:23:22;13.70;99.90
59075;DHT22;44860;53.020;6.738;2024-03-02T15:25:52;13.60;99.90
59075;DHT22;44860;53.020;6.738;2024-03-02T15:28:17;13.50;99.90
59075;DHT22;44860;53.020;6.738;2024-03-02T15:30:44;13.50;99.90
59075;DHT22;44860;53.020;6.738;2024-03-02T15:33:09;13.40;99.90
59075;DHT22;44860;53.020;6.738;2024-03-02T15:35:35;13.50;99.90
59075;DHT22;44860;53.020;6.738;2024-03-02T15:38:01;13.40;99.90
59075;DHT22;44860;53.020;6.738;2024-03-02T15:40:26;13.40;99.90
59075;DHT22;44860;53.020;6.738;2024-03-02T15:42:52;13.40;99.90
59075;DHT22;44860;53.020;6.738;2024-03-02T15:45:17;13.50;99.90
59075;DHT22;44860;53.020;6.738;2024-03-02T15:47:46;13.50;99.90
59075;DHT22;44860;53.020;6.738;2024-03-02T15:50:11;13.50;99.90
59075;DHT22;44860;53.020;6.738;2024-03-02T15:52:38;13.30;99.90